Time;durP1;ratioP1;P1;durP2;ratioP2;P2;SDS_P1;SDS_P2;PMS_P1;PMS_P2;Temp;Humidity;BMP_temperature;BMP_pressure;BME280_temperature;BME280_humidity;BME280_pressure;Samples;Min_cycle;Max_cycle;Signal;HPM_P1;HPM_P2
2021/12/08 00:01:07;;;;;;;2.67;1.42;;;;;;;;;;4992791;28;20030;-62
2021/12/08 00:03:33;;;;;;;4.53;1.80;;;;;;;;;;4991167;28;20030;-63
2021/12/08 00:05:59;;;;;;;5.65;2.10;;;;;;;;;;4989925;28;20030;-62
2021/12/08 00:08:28;;;;;;;5.47;1.92;;;;;;;;;;4974211;28;20050;-62
2021/12/08 00:13:25;;;;;;;4.53;1.95;;;;;;;;;;4991069;28;20034;-63
2021/12/08 00:15:59;;;;;;;6.60;1.92;;;;;;;;;;4975519;28;20042;-62
2021/12/08 00:18:32;;;;;;;6.03;1.92;;;;;;;;;;4992918;28;20499;-63
2021/12/08 00:21:00;;;;;;;4.05;1.75;;;;;;;;;;4992012;28;20423;-63
2021/12/08 00:23:28;;;;;;;5.38;1.83;;;;;;;;;;4991088;28;20042;-62
2021/12/08 00:25:54;;;;;;;5.05;1.75;;;;;;;;;;4974518;28;20387;-62
2021/12/08 00:28:20;;;;;;;3.38;1.80;;;;;;;;;;4990277;28;20030;-67
2021/12/08 00:30:50;;;;;;;3.97;1.63;;;;;;;;;;4992757;28;20045;-62
2021/12/08 00:33:16;;;;;;;6.72;1.95;;;;;;;;;;4973340;28;20125;-62
2021/12/08 00:35:45;;;;;;;4.05;1.50;;;;;;;;;;4989478;28;20030;-64
2021/12/08 00:38:10;;;;;;;4.40;2.00;;;;;;;;;;4991812;28;20158;-63
2021/12/08 00:40:36;;;;;;;4.47;1.80;;;;;;;;;;4991259;28;20034;-63
2021/12/08 00:43:04;;;;;;;3.40;1.65;;;;;;;;;;4991986;28;20034;-63
2021/12/08 00:45:29;;;;;;;3.55;1.60;;;;;;;;;;4990365;28;20034;-63
2021/12/08 00:47:56;;;;;;;4.95;1.75;;;;;;;;;;4991102;28;20030;-63
2021/12/08 00:50:26;;;;;;;5.85;1.80;;;;;;;;;;4988937;28;20042;-68
2021/12/08 00:52:52;;;;;;;3.95;1.88;;;;;;;;;;4992046;28;20042;-63
2021/12/08 00:55:19;;;;;;;4.53;1.40;;;;;;;;;;4991514;28;20043;-68
2021/12/08 00:57:45;;;;;;;4.47;1.60;;;;;;;;;;4990980;28;20034;-64
2021/12/08 01:00:15;;;;;;;3.50;1.50;;;;;;;;;;4973147;28;20049;-64
2021/12/08 01:02:41;;;;;;;3.42;1.60;;;;;;;;;;4968587;28;20468;-65
2021/12/08 01:05:09;;;;;;;4.03;1.73;;;;;;;;;;4969846;28;20276;-64
2021/12/08 01:07:34;;;;;;;4.90;1.65;;;;;;;;;;4972457;28;20420;-66
2021/12/08 01:10:00;;;;;;;4.03;1.70;;;;;;;;;;4991046;28;20038;-65
2021/12/08 01:12:26;;;;;;;5.78;1.60;;;;;;;;;;4973885;28;20075;-64
2021/12/08 01:14:51;;;;;;;2.67;1.55;;;;;;;;;;4972231;28;20058;-64
2021/12/08 01:17:16;;;;;;;4.80;1.80;;;;;;;;;;4991171;28;20038;-64
2021/12/08 01:19:42;;;;;;;4.03;1.60;;;;;;;;;;4988408;28;20037;-64
2021/12/08 01:22:08;;;;;;;4.03;1.52;;;;;;;;;;4990598;28;20447;-64
2021/12/08 01:24:33;;;;;;;4.25;1.70;;;;;;;;;;4989402;28;20045;-64
2021/12/08 01:26:59;;;;;;;4.88;1.73;;;;;;;;;;4990675;28;20034;-64
2021/12/08 01:29:24;;;;;;;2.03;1.40;;;;;;;;;;4990374;28;20125;-67
2021/12/08 01:31:50;;;;;;;3.25;1.60;;;;;;;;;;4991311;28;20030;-64
2021/12/08 01:34:16;;;;;;;2.85;1.67;;;;;;;;;;4990618;28;20038;-64
2021/12/08 01:36:42;;;;;;;4.22;1.50;;;;;;;;;;4987158;28;20499;-66
2021/12/08 01:39:08;;;;;;;3.33;1.50;;;;;;;;;;4991018;28;20066;-64
2021/12/08 01:41:34;;;;;;;4.88;1.70;;;;;;;;;;4989774;28;20112;-64
2021/12/08 01:46:44;;;;;;;4.38;2.03;;;;;;;;;;4990223;28;20109;-64
2021/12/08 01:49:10;;;;;;;3.70;1.75;;;;;;;;;;4990128;28;20042;-64
2021/12/08 01:51:35;;;;;;;4.50;1.85;;;;;;;;;;4988806;28;20038;-64
2021/12/08 01:54:02;;;;;;;3.20;1.80;;;;;;;;;;4969394;28;20030;-65
2021/12/08 01:56:29;;;;;;;3.65;1.88;;;;;;;;;;4982362;28;20450;-65
2021/12/08 01:58:55;;;;;;;2.80;1.52;;;;;;;;;;4987501;28;20122;-64
2021/12/08 02:01:24;;;;;;;4.07;1.67;;;;;;;;;;4972281;28;20129;-64
2021/12/08 02:03:50;;;;;;;5.20;1.77;;;;;;;;;;4973196;28;20468;-65
2021/12/08 02:06:17;;;;;;;4.55;1.80;;;;;;;;;;4988144;28;20038;-64
2021/12/08 02:08:44;;;;;;;4.00;1.90;;;;;;;;;;4989917;28;20049;-63
2021/12/08 02:11:09;;;;;;;4.20;1.80;;;;;;;;;;4986151;28;20459;-63
2021/12/08 02:13:39;;;;;;;3.72;1.90;;;;;;;;;;4970725;28;20039;-63
2021/12/08 02:16:14;;;;;;;4.70;1.90;;;;;;;;;;4970337;28;20031;-62
2021/12/08 02:18:39;;;;;;;4.13;1.95;;;;;;;;;;4969567;28;20042;-62
2021/12/08 02:21:29;;;;;;;3.20;1.83;;;;;;;;;;4973888;28;20461;-63
2021/12/08 02:23:57;;;;;;;3.33;1.90;;;;;;;;;;4976008;28;20061;-62
2021/12/08 02:26:23;;;;;;;3.17;1.90;;;;;;;;;;4974743;28;20050;-63
2021/12/08 02:28:49;;;;;;;3.60;1.90;;;;;;;;;;4973446;28;20047;-63
2021/12/08 02:31:20;;;;;;;3.55;1.90;;;;;;;;;;4974317;28;20038;-64
2021/12/08 02:49:57;;;;;;;;;;;;;;;;;;4975110;28;20117;-63
2021/12/08 02:52:23;;;;;;;3.28;1.58;;;;;;;;;;4971635;28;20375;-62
2021/12/08 02:54:50;;;;;;;3.50;1.70;;;;;;;;;;4972117;28;20039;-62
2021/12/08 02:57:18;;;;;;;4.10;1.95;;;;;;;;;;4973756;28;20440;-62
2021/12/08 02:59:45;;;;;;;3.30;1.58;;;;;;;;;;4972684;28;20482;-62
2021/12/08 03:02:12;;;;;;;5.03;2.08;;;;;;;;;;4971911;28;20034;-62
2021/12/08 03:04:38;;;;;;;3.70;1.75;;;;;;;;;;4956077;28;20094;-63
2021/12/08 03:07:05;;;;;;;3.08;1.90;;;;;;;;;;4973731;28;20030;-62
2021/12/08 03:09:30;;;;;;;5.78;2.13;;;;;;;;;;4971722;28;20130;-65
2021/12/08 03:11:58;;;;;;;3.42;2.00;;;;;;;;;;4987737;28;20125;-62
2021/12/08 03:14:25;;;;;;;4.85;2.00;;;;;;;;;;4993416;28;20065;-62
2021/12/08 03:16:57;;;;;;;3.65;2.10;;;;;;;;;;4991642;28;20137;-62
2021/12/08 03:19:25;;;;;;;2.40;1.70;;;;;;;;;;4994116;28;20089;-61
2021/12/08 03:21:52;;;;;;;5.70;2.00;;;;;;;;;;4974143;28;20896;-62
2021/12/08 03:26:50;;;;;;;3.33;1.67;;;;;;;;;;4992582;28;20039;-62
2021/12/08 03:29:31;;;;;;;3.45;1.63;;;;;;;;;;4993013;28;20113;-62
2021/12/08 03:32:05;;;;;;;3.05;1.75;;;;;;;;;;4971334;28;20061;-64
2021/12/08 03:34:34;;;;;;;3.22;1.70;;;;;;;;;;4995966;28;20030;-65
2021/12/08 03:37:00;;;;;;;3.03;1.98;;;;;;;;;;4991102;28;20114;-62
2021/12/08 03:39:26;;;;;;;4.28;2.00;;;;;;;;;;4991328;28;20121;-62
2021/12/08 03:41:51;;;;;;;5.05;1.98;;;;;;;;;;4990340;28;20034;-63
2021/12/08 03:44:17;;;;;;;6.72;1.50;;;;;;;;;;4991612;28;20038;-62
2021/12/08 03:46:43;;;;;;;3.22;1.70;;;;;;;;;;4990726;28;20512;-62
2021/12/08 03:49:13;;;;;;;5.97;1.83;;;;;;;;;;4973529;28;20442;-62
2021/12/08 03:51:40;;;;;;;5.70;1.80;;;;;;;;;;4992546;28;20157;-62
2021/12/08 03:54:06;;;;;;;4.05;1.58;;;;;;;;;;4973842;28;20084;-61
2021/12/08 03:56:32;;;;;;;3.70;1.60;;;;;;;;;;4992810;28;20034;-65
2021/12/08 03:58:58;;;;;;;3.97;1.65;;;;;;;;;;4973654;28;20443;-61
2021/12/08 04:01:23;;;;;;;1.88;1.45;;;;;;;;;;4991237;28;20116;-62
2021/12/08 04:03:50;;;;;;;4.55;1.73;;;;;;;;;;4989325;28;20103;-61
2021/12/08 04:06:32;;;;;;;3.17;1.50;;;;;;;;;;4992246;28;20555;-62
2021/12/08 04:08:57;;;;;;;;;;;;;;;;;;4991973;28;20077;-63
2021/12/08 04:11:24;;;;;;;3.05;1.48;;;;;;;;;;4991789;28;19957;-65
2021/12/08 04:13:55;;;;;;;4.35;1.30;;;;;;;;;;4989562;28;20039;-63
2021/12/08 04:16:26;;;;;;;3.25;1.67;;;;;;;;;;4975073;28;20052;-61
2021/12/08 04:18:52;;;;;;;3.20;1.50;;;;;;;;;;4970853;28;20243;-61
2021/12/08 04:21:19;;;;;;;3.65;1.80;;;;;;;;;;4991781;28;20411;-61
2021/12/08 04:23:46;;;;;;;3.33;1.50;;;;;;;;;;4990348;28;20065;-66
2021/12/08 04:26:17;;;;;;;3.95;1.90;;;;;;;;;;4991864;28;20085;-62
2021/12/08 04:28:43;;;;;;;5.78;2.13;;;;;;;;;;4991217;28;20084;-64
2021/12/08 04:31:19;;;;;;;2.88;1.40;;;;;;;;;;4996595;28;20038;-63
2021/12/08 04:33:54;;;;;;;4.68;1.52;;;;;;;;;;4991363;28;20034;-63
2021/12/08 04:36:23;;;;;;;2.55;1.40;;;;;;;;;;4991506;28;20035;-63
2021/12/08 04:38:54;;;;;;;6.25;1.50;;;;;;;;;;4990567;28;20044;-61
2021/12/08 04:41:30;;;;;;;4.82;1.60;;;;;;;;;;4990872;28;20034;-62
2021/12/08 04:44:12;;;;;;;13.13;2.10;;;;;;;;;;4989523;28;20034;-62
2021/12/08 04:51:55;;;;;;;4.97;1.40;;;;;;;;;;4990236;28;20041;-62
2021/12/08 05:08:42;;;;;;;4.50;1.48;;;;;;;;;;4952782;29;20030;-62
2021/12/08 05:11:18;;;;;;;3.65;1.60;;;;;;;;;;4947383;29;20059;-62
2021/12/08 05:13:46;;;;;;;6.00;1.85;;;;;;;;;;4945254;29;20039;-62
2021/12/08 05:16:13;;;;;;;5.75;1.70;;;;;;;;;;4934378;29;20040;-62
2021/12/08 05:18:44;;;;;;;3.08;1.80;;;;;;;;;;4931246;29;20038;-64
2021/12/08 05:21:22;;;;;;;5.60;1.73;;;;;;;;;;4916701;29;20440;-62
2021/12/08 05:24:02;;;;;;;4.43;1.85;;;;;;;;;;4931207;29;20395;-62
2021/12/08 05:26:37;;;;;;;7.85;2.03;;;;;;;;;;4931724;29;20056;-62
2021/12/08 05:29:19;;;;;;;3.10;1.70;;;;;;;;;;4931737;29;20028;-64
2021/12/08 05:31:46;;;;;;;4.43;2.55;;;;;;;;;;4920487;29;20056;-62
2021/12/08 05:34:12;;;;;;;4.65;2.00;;;;;;;;;;4932159;29;20504;-62
2021/12/08 05:36:39;;;;;;;5.88;2.42;;;;;;;;;;4931081;29;20138;-65
2021/12/08 05:39:11;;;;;;;2.33;1.70;;;;;;;;;;4946250;28;20058;-62
2021/12/08 05:41:40;;;;;;;5.35;2.20;;;;;;;;;;4974565;28;20042;-65
2021/12/08 05:44:07;;;;;;;6.30;2.00;;;;;;;;;;4973087;28;20034;-62
2021/12/08 05:46:35;;;;;;;4.18;2.08;;;;;;;;;;4991598;28;20061;-64
2021/12/08 05:49:01;;;;;;;5.38;2.10;;;;;;;;;;4987097;28;20038;-62
2021/12/08 05:51:31;;;;;;;4.80;1.77;;;;;;;;;;4974815;28;20073;-60
2021/12/08 05:54:05;;;;;;;6.68;2.22;;;;;;;;;;4955201;28;20035;-60
2021/12/08 05:56:32;;;;;;;5.45;2.00;;;;;;;;;;4976135;28;20043;-61
2021/12/08 05:58:59;;;;;;;5.75;2.00;;;;;;;;;;4970687;28;20126;-62
2021/12/08 06:01:31;;;;;;;2.88;1.73;;;;;;;;;;4996151;28;20038;-61
2021/12/08 06:03:57;;;;;;;4.15;2.10;;;;;;;;;;4977472;28;20035;-62
2021/12/08 06:06:23;;;;;;;5.15;1.98;;;;;;;;;;4992015;28;20042;-61
2021/12/08 06:08:50;;;;;;;5.43;1.85;;;;;;;;;;4984526;28;20030;-61
2021/12/08 06:11:16;;;;;;;4.85;1.90;;;;;;;;;;4995698;28;20092;-65
2021/12/08 06:13:45;;;;;;;4.72;1.98;;;;;;;;;;4993924;28;20105;-63
2021/12/08 06:16:13;;;;;;;7.90;2.70;;;;;;;;;;4987666;28;20042;-63
2021/12/08 06:18:40;;;;;;;6.72;2.45;;;;;;;;;;4975741;28;20133;-68
2021/12/08 06:21:12;;;;;;;7.43;2.35;;;;;;;;;;4976048;28;20055;-64
2021/12/08 06:23:39;;;;;;;4.35;1.98;;;;;;;;;;4975601;28;20508;-68
2021/12/08 06:26:06;;;;;;;5.78;2.30;;;;;;;;;;4975195;28;20039;-64
2021/12/08 06:28:32;;;;;;;8.98;2.80;;;;;;;;;;4983544;28;20045;-64
2021/12/08 06:30:57;;;;;;;7.50;2.55;;;;;;;;;;4993895;28;20476;-64
2021/12/08 06:33:23;;;;;;;7.00;2.92;;;;;;;;;;4995307;28;20073;-64
2021/12/08 06:35:53;;;;;;;4.82;2.45;;;;;;;;;;4994117;28;20054;-64
2021/12/08 06:38:19;;;;;;;8.70;2.83;;;;;;;;;;4995065;28;20042;-64
2021/12/08 06:41:11;;;;;;;4.68;2.30;;;;;;;;;;4976838;28;20279;-63
2021/12/08 06:43:43;;;;;;;6.88;2.63;;;;;;;;;;4993434;28;20088;-63
2021/12/08 06:46:10;;;;;;;6.15;2.42;;;;;;;;;;4994167;28;20045;-63
2021/12/08 06:48:42;;;;;;;4.97;2.83;;;;;;;;;;4977142;28;20432;-65
2021/12/08 06:51:18;;;;;;;4.57;2.40;;;;;;;;;;4994920;28;20036;-64
2021/12/08 06:53:46;;;;;;;5.90;2.80;;;;;;;;;;4994459;28;20110;-68
2021/12/08 06:56:27;;;;;;;4.50;2.45;;;;;;;;;;4976904;28;20392;-64
2021/12/08 06:58:58;;;;;;;8.60;2.63;;;;;;;;;;4975969;28;20030;-64
2021/12/08 07:01:43;;;;;;;6.97;2.80;;;;;;;;;;4994778;28;20041;-64
2021/12/08 07:07:08;;;;;;;6.47;2.80;;;;;;;;;;4993587;28;20031;-64
2021/12/08 07:09:57;;;;;;;8.35;2.70;;;;;;;;;;4993549;28;20030;-62
2021/12/08 07:12:32;;;;;;;5.82;2.70;;;;;;;;;;4993952;28;20050;-63
2021/12/08 07:15:20;;;;;;;6.03;2.40;;;;;;;;;;4993547;28;20455;-65
2021/12/08 07:17:50;;;;;;;6.60;2.90;;;;;;;;;;4975793;28;20052;-62
2021/12/08 07:20:41;;;;;;;9.05;2.78;;;;;;;;;;4993827;28;20377;-62
2021/12/08 07:23:35;;;;;;;7.80;2.88;;;;;;;;;;4993997;28;20120;-63
2021/12/08 07:26:08;;;;;;;9.10;2.58;;;;;;;;;;4993513;28;20022;-64
2021/12/08 07:28:34;;;;;;;7.93;3.03;;;;;;;;;;4993105;28;20459;-64
2021/12/08 07:31:20;;;;;;;8.95;3.00;;;;;;;;;;4993745;28;20034;-64
2021/12/08 07:33:46;;;;;;;6.93;3.05;;;;;;;;;;4977551;28;20037;-66
2021/12/08 07:36:15;;;;;;;5.57;2.60;;;;;;;;;;4993531;28;20027;-63
2021/12/08 07:38:43;;;;;;;5.68;2.85;;;;;;;;;;4993114;28;20034;-64
2021/12/08 07:41:15;;;;;;;5.80;3.30;;;;;;;;;;4993273;28;20063;-63
2021/12/08 07:43:45;;;;;;;5.47;2.75;;;;;;;;;;4994217;28;20365;-64
2021/12/08 07:46:15;;;;;;;10.80;3.17;;;;;;;;;;4992867;28;20030;-63
2021/12/08 07:48:56;;;;;;;8.13;2.60;;;;;;;;;;4993761;28;20034;-63
2021/12/08 07:51:44;;;;;;;8.90;2.63;;;;;;;;;;4994051;28;20032;-63
2021/12/08 07:54:10;;;;;;;11.15;3.00;;;;;;;;;;4975732;28;20030;-63
2021/12/08 07:56:38;;;;;;;7.47;2.90;;;;;;;;;;4993779;28;20550;-63
2021/12/08 07:59:08;;;;;;;7.38;2.83;;;;;;;;;;4992446;28;20115;-64
2021/12/08 08:01:40;;;;;;;6.13;2.47;;;;;;;;;;4990840;28;20117;-63
2021/12/08 08:04:09;;;;;;;7.88;2.63;;;;;;;;;;4975499;28;20614;-63
2021/12/08 08:06:39;;;;;;;8.48;2.80;;;;;;;;;;4975789;28;20476;-63
2021/12/08 08:09:09;;;;;;;10.13;2.78;;;;;;;;;;4992427;28;20658;-64
2021/12/08 08:11:41;;;;;;;6.68;2.38;;;;;;;;;;4993504;28;20054;-64
2021/12/08 08:14:06;;;;;;;7.63;2.58;;;;;;;;;;4992646;28;20037;-63
2021/12/08 08:16:34;;;;;;;8.70;2.40;;;;;;;;;;4992490;28;20030;-64
2021/12/08 08:19:07;;;;;;;8.05;2.47;;;;;;;;;;4991844;28;20056;-65
2021/12/08 08:21:40;;;;;;;6.53;2.40;;;;;;;;;;4993017;28;20053;-65
2021/12/08 08:24:07;;;;;;;9.80;2.38;;;;;;;;;;4992087;28;20107;-65
2021/12/08 08:26:33;;;;;;;10.80;2.47;;;;;;;;;;4992834;28;20391;-64
2021/12/08 08:28:59;;;;;;;8.57;2.53;;;;;;;;;;4991490;28;20042;-65
2021/12/08 08:31:36;;;;;;;9.45;2.22;;;;;;;;;;4991080;28;20377;-64
2021/12/08 08:34:02;;;;;;;6.00;2.55;;;;;;;;;;4992115;28;20461;-64
2021/12/08 08:36:33;;;;;;;10.13;2.78;;;;;;;;;;4975546;28;20062;-64
2021/12/08 08:39:06;;;;;;;8.57;2.30;;;;;;;;;;4991881;28;20081;-63
2021/12/08 08:41:40;;;;;;;7.95;2.28;;;;;;;;;;4987883;28;20061;-64
2021/12/08 08:44:25;;;;;;;4.95;1.95;;;;;;;;;;4974008;28;20133;-63
2021/12/08 08:46:52;;;;;;;5.97;2.35;;;;;;;;;;4992006;28;20030;-67
2021/12/08 08:49:24;;;;;;;10.30;2.40;;;;;;;;;;4991310;28;20031;-66
2021/12/08 08:52:00;;;;;;;9.82;2.30;;;;;;;;;;4974778;28;20034;-67
2021/12/08 08:54:30;;;;;;;4.68;2.30;;;;;;;;;;4992982;28;20030;-64
2021/12/08 08:57:01;;;;;;;10.80;2.70;;;;;;;;;;4991776;28;20034;-65
2021/12/08 08:59:32;;;;;;;8.10;2.20;;;;;;;;;;4990083;28;20058;-65
2021/12/08 09:01:59;;;;;;;6.57;2.35;;;;;;;;;;4991647;28;20188;-64
2021/12/08 09:04:32;;;;;;;7.38;2.22;;;;;;;;;;4991343;28;20068;-64
2021/12/08 09:07:03;;;;;;;7.97;2.35;;;;;;;;;;4990330;28;20022;-64
2021/12/08 09:09:33;;;;;;;5.25;2.30;;;;;;;;;;4975847;28;20030;-64
2021/12/08 09:12:07;;;;;;;7.28;2.38;;;;;;;;;;4991246;28;20062;-62
2021/12/08 09:14:40;;;;;;;7.72;2.10;;;;;;;;;;4990486;28;20112;-63
2021/12/08 09:17:37;;;;;;;4.10;1.92;;;;;;;;;;4992083;28;20030;-64
2021/12/08 09:20:09;;;;;;;5.88;1.95;;;;;;;;;;4990210;28;20405;-65
2021/12/08 09:22:43;;;;;;;7.22;2.00;;;;;;;;;;4974351;28;20041;-64
2021/12/08 09:25:34;;;;;;;5.32;2.22;;;;;;;;;;4991168;28;20046;-66
2021/12/08 09:28:09;;;;;;;7.10;2.00;;;;;;;;;;4984257;28;20042;-65
2021/12/08 09:30:46;;;;;;;4.78;1.90;;;;;;;;;;4993666;28;20045;-66
2021/12/08 09:33:17;;;;;;;9.13;1.90;;;;;;;;;;4994915;28;20098;-66
2021/12/08 09:35:57;;;;;;;5.50;2.05;;;;;;;;;;4996059;28;20058;-66
2021/12/08 09:38:35;;;;;;;7.05;2.10;;;;;;;;;;4996031;28;20049;-67
2021/12/08 09:41:08;;;;;;;9.40;2.00;;;;;;;;;;4994941;28;20026;-66
2021/12/08 09:43:44;;;;;;;6.88;2.00;;;;;;;;;;4995579;28;20061;-62
2021/12/08 09:46:14;;;;;;;6.82;2.28;;;;;;;;;;4994587;28;20111;-67
2021/12/08 09:48:43;;;;;;;5.50;2.22;;;;;;;;;;4995684;28;20030;-67
2021/12/08 09:51:11;;;;;;;8.80;2.55;;;;;;;;;;4995490;28;20250;-66
2021/12/08 09:53:37;;;;;;;7.68;2.20;;;;;;;;;;4979064;28;20030;-66
2021/12/08 09:56:04;;;;;;;9.43;2.20;;;;;;;;;;4995887;28;20050;-64
2021/12/08 09:58:30;;;;;;;6.50;2.47;;;;;;;;;;4995373;28;20387;-68
2021/12/08 10:00:59;;;;;;;6.88;2.38;;;;;;;;;;4976766;28;20038;-66
2021/12/08 10:03:25;;;;;;;10.90;2.85;;;;;;;;;;4995164;28;20034;-66
2021/12/08 10:05:51;;;;;;;9.43;2.72;;;;;;;;;;4994886;28;20030;-69
2021/12/08 10:08:17;;;;;;;7.88;2.83;;;;;;;;;;4995252;28;20030;-64
2021/12/08 10:10:44;;;;;;;9.55;2.70;;;;;;;;;;4994444;28;20132;-67
2021/12/08 10:13:11;;;;;;;7.50;2.60;;;;;;;;;;4977031;28;20042;-67
2021/12/08 10:15:37;;;;;;;8.00;2.95;;;;;;;;;;4994328;28;20029;-68
2021/12/08 10:18:04;;;;;;;8.48;2.88;;;;;;;;;;4976665;28;20058;-67
2021/12/08 10:20:39;;;;;;;9.23;2.88;;;;;;;;;;4994478;28;20077;-66
2021/12/08 10:23:15;;;;;;;7.05;2.53;;;;;;;;;;4993788;28;20033;-65
2021/12/08 10:25:52;;;;;;;11.00;2.80;;;;;;;;;;4995161;28;20054;-68
2021/12/08 10:28:21;;;;;;;9.02;2.92;;;;;;;;;;4994463;28;20030;-67
2021/12/08 10:30:53;;;;;;;8.73;2.65;;;;;;;;;;4994912;28;20034;-67
2021/12/08 10:36:42;;;;;;;7.97;2.28;;;;;;;;;;4986556;28;20089;-65
2021/12/08 10:39:17;;;;;;;7.15;2.25;;;;;;;;;;4994082;28;20041;-64
2021/12/08 10:42:14;;;;;;;7.53;2.20;;;;;;;;;;4976469;28;20388;-65
2021/12/08 10:44:50;;;;;;;10.27;2.10;;;;;;;;;;4994862;28;20034;-64
2021/12/08 10:47:23;;;;;;;5.97;1.77;;;;;;;;;;4976407;28;20030;-64
2021/12/08 10:55:14;;;;;;;6.10;1.90;;;;;;;;;;4994193;28;20073;-68
2021/12/08 10:57:39;;;;;;;11.05;2.38;;;;;;;;;;4973914;28;20038;-64
2021/12/08 11:00:08;;;;;;;10.15;1.95;;;;;;;;;;4969363;28;20173;-66
2021/12/08 11:02:48;;;;;;;7.55;1.90;;;;;;;;;;4976357;28;20041;-64
2021/12/08 11:05:28;;;;;;;7.75;1.88;;;;;;;;;;4991841;28;20353;-66
2021/12/08 11:08:14;;;;;;;5.90;1.85;;;;;;;;;;4993232;28;20456;-68
2021/12/08 11:10:53;;;;;;;7.60;2.15;;;;;;;;;;4994400;28;20061;-68
2021/12/08 11:13:22;;;;;;;8.60;1.88;;;;;;;;;;4993411;28;20042;-67
2021/12/08 11:15:58;;;;;;;6.32;2.15;;;;;;;;;;4993013;28;20041;-65
2021/12/08 11:18:24;;;;;;;9.40;1.70;;;;;;;;;;4994283;28;20037;-65
2021/12/08 11:20:59;;;;;;;4.55;1.63;;;;;;;;;;4976510;28;20391;-66
2021/12/08 11:23:45;;;;;;;6.50;1.80;;;;;;;;;;4993441;28;20035;-66
2021/12/08 11:26:11;;;;;;;5.82;2.13;;;;;;;;;;4985271;28;20096;-67
2021/12/08 11:28:36;;;;;;;9.52;2.80;;;;;;;;;;4985281;28;20034;-67
2021/12/08 11:31:14;;;;;;;7.43;1.75;;;;;;;;;;4994967;28;20038;-64
2021/12/08 11:33:44;;;;;;;6.28;2.30;;;;;;;;;;4993709;28;20042;-64
2021/12/08 11:36:19;;;;;;;7.30;2.22;;;;;;;;;;4987724;28;20030;-66
2021/12/08 11:38:49;;;;;;;4.97;1.90;;;;;;;;;;4993619;28;20030;-66
2021/12/08 11:41:34;;;;;;;11.05;2.00;;;;;;;;;;4993157;28;20037;-68
2021/12/08 11:44:06;;;;;;;7.70;2.00;;;;;;;;;;4990695;28;20125;-65
2021/12/08 11:46:46;;;;;;;6.43;2.67;;;;;;;;;;4991301;28;20133;-65
2021/12/08 11:49:12;;;;;;;11.15;2.20;;;;;;;;;;4991855;28;20061;-67
2021/12/08 11:51:43;;;;;;;5.75;2.05;;;;;;;;;;4992357;28;20069;-68
2021/12/08 11:54:27;;;;;;;9.65;2.42;;;;;;;;;;4992941;28;20428;-67
2021/12/08 11:57:01;;;;;;;8.35;2.20;;;;;;;;;;4992789;28;20030;-67
2021/12/08 11:59:27;;;;;;;8.63;2.08;;;;;;;;;;4976072;28;20038;-67
2021/12/08 12:01:53;;;;;;;5.43;2.10;;;;;;;;;;4975393;28;20034;-65
2021/12/08 12:04:18;;;;;;;7.57;2.40;;;;;;;;;;4959665;28;20131;-65
2021/12/08 12:06:44;;;;;;;6.50;2.17;;;;;;;;;;4975684;28;20042;-68
2021/12/08 12:09:10;;;;;;;6.57;2.10;;;;;;;;;;4992725;28;20482;-66
2021/12/08 12:11:36;;;;;;;8.38;2.20;;;;;;;;;;4992275;28;20042;-68
2021/12/08 12:14:02;;;;;;;10.82;2.30;;;;;;;;;;4975073;28;20034;-69
2021/12/08 12:16:28;;;;;;;7.13;2.22;;;;;;;;;;4992071;28;20062;-67
2021/12/08 12:18:58;;;;;;;5.30;2.15;;;;;;;;;;4992577;28;20391;-67
2021/12/08 12:21:52;;;;;;;5.55;1.83;;;;;;;;;;4992791;28;20045;-67
2021/12/08 12:25:02;;;;;;;5.05;1.80;;;;;;;;;;4991816;28;20355;-66
2021/12/08 12:27:59;;;;;;;10.52;1.90;;;;;;;;;;4975816;28;20038;-67
2021/12/08 12:30:42;;;;;;;8.80;2.03;;;;;;;;;;4993229;28;20033;-69
2021/12/08 12:33:19;;;;;;;9.18;1.60;;;;;;;;;;4991206;28;20445;-67
2021/12/08 12:35:54;;;;;;;7.22;2.00;;;;;;;;;;4992394;28;20113;-66
2021/12/08 12:38:36;;;;;;;6.05;1.85;;;;;;;;;;4991661;28;20056;-66
2021/12/08 12:41:04;;;;;;;5.22;2.17;;;;;;;;;;4990404;28;20038;-68
2021/12/08 12:43:33;;;;;;;6.57;1.70;;;;;;;;;;4992219;28;20074;-67
2021/12/08 12:46:06;;;;;;;7.15;1.80;;;;;;;;;;4992025;28;20026;-67
2021/12/08 12:48:32;;;;;;;8.00;1.73;;;;;;;;;;4991264;28;20114;-65
2021/12/08 12:51:05;;;;;;;5.35;1.70;;;;;;;;;;4990419;28;20465;-69
2021/12/08 12:53:56;;;;;;;6.07;1.55;;;;;;;;;;4992366;28;20373;-66
2021/12/08 12:56:34;;;;;;;4.05;1.60;;;;;;;;;;4990023;28;20472;-67
2021/12/08 12:59:10;;;;;;;5.13;1.67;;;;;;;;;;4974190;28;20077;-71
2021/12/08 13:01:43;;;;;;;5.38;1.55;;;;;;;;;;4992407;28;20030;-68
2021/12/08 13:04:21;;;;;;;8.73;1.58;;;;;;;;;;4991186;28;20062;-67
2021/12/08 13:06:56;;;;;;;8.70;2.00;;;;;;;;;;4992551;28;20065;-67
2021/12/08 13:09:46;;;;;;;5.65;1.73;;;;;;;;;;4988301;28;20045;-67
2021/12/08 13:12:19;;;;;;;3.88;1.60;;;;;;;;;;4991248;28;20108;-66
2021/12/08 13:14:48;;;;;;;6.63;1.75;;;;;;;;;;4982700;28;20034;-64
2021/12/08 13:17:23;;;;;;;5.53;1.40;;;;;;;;;;4991722;28;20040;-66
2021/12/08 13:19:54;;;;;;;2.97;1.27;;;;;;;;;;4984065;28;20039;-65
2021/12/08 13:22:44;;;;;;;7.82;1.60;;;;;;;;;;4990636;28;20026;-68
2021/12/08 13:25:28;;;;;;;6.88;1.60;;;;;;;;;;4990930;28;20395;-68
2021/12/08 13:27:55;;;;;;;3.80;1.33;;;;;;;;;;4974927;28;20038;-66
2021/12/08 13:30:22;;;;;;;5.30;1.65;;;;;;;;;;4990170;28;20038;-65
2021/12/08 13:32:56;;;;;;;8.50;1.60;;;;;;;;;;4991036;28;20530;-64
2021/12/08 13:35:33;;;;;;;6.78;1.60;;;;;;;;;;4991219;28;20290;-64
2021/12/08 13:37:59;;;;;;;5.88;1.45;;;;;;;;;;4991708;28;20502;-66
2021/12/08 13:41:12;;;;;;;6.70;1.70;;;;;;;;;;4991205;28;20034;-67
2021/12/08 13:43:43;;;;;;;6.40;1.60;;;;;;;;;;4930839;29;20043;-64
2021/12/08 13:46:30;;;;;;;6.72;2.03;;;;;;;;;;4930358;29;20046;-67
2021/12/08 13:49:16;;;;;;;4.28;1.50;;;;;;;;;;4931143;29;20126;-62
2021/12/08 13:51:57;;;;;;;4.50;1.45;;;;;;;;;;4932029;29;20036;-66
2021/12/08 13:54:31;;;;;;;3.33;1.40;;;;;;;;;;4930310;29;20052;-64
2021/12/08 13:56:59;;;;;;;6.82;1.95;;;;;;;;;;4931589;29;20123;-66
2021/12/08 13:59:46;;;;;;;7.28;1.80;;;;;;;;;;4931080;29;20114;-69
2021/12/08 14:02:38;;;;;;;6.25;1.80;;;;;;;;;;4929181;29;20048;-65
2021/12/08 14:05:29;;;;;;;7.05;2.00;;;;;;;;;;4909212;29;20533;-69
2021/12/08 14:07:56;;;;;;;6.45;1.92;;;;;;;;;;4942781;29;20536;-68
2021/12/08 14:10:25;;;;;;;5.03;1.80;;;;;;;;;;4929846;29;20043;-67
2021/12/08 14:12:53;;;;;;;5.47;1.88;;;;;;;;;;4916185;29;20040;-66
2021/12/08 14:15:49;;;;;;;3.83;1.60;;;;;;;;;;4987973;28;20068;-66
2021/12/08 14:18:18;;;;;;;6.20;1.65;;;;;;;;;;4994521;28;20034;-67
2021/12/08 14:20:49;;;;;;;6.60;2.03;;;;;;;;;;4995236;28;20088;-66
2021/12/08 14:23:15;;;;;;;7.97;2.00;;;;;;;;;;4977032;28;20108;-66
2021/12/08 14:25:54;;;;;;;5.13;1.55;;;;;;;;;;4991875;28;20447;-64
2021/12/08 14:28:39;;;;;;;4.78;1.80;;;;;;;;;;4986169;28;20034;-69
2021/12/08 14:31:15;;;;;;;6.78;1.90;;;;;;;;;;4994370;28;20038;-69
2021/12/08 14:33:51;;;;;;;6.38;1.95;;;;;;;;;;4994660;28;20042;-68
2021/12/08 14:36:17;;;;;;;8.63;1.80;;;;;;;;;;4975133;28;20037;-65
2021/12/08 14:38:53;;;;;;;7.65;1.73;;;;;;;;;;4959941;28;20488;-65
2021/12/08 14:41:23;;;;;;;5.57;1.88;;;;;;;;;;4995363;28;20120;-65
2021/12/08 14:43:52;;;;;;;9.60;1.88;;;;;;;;;;4995978;28;20063;-65
2021/12/08 14:46:20;;;;;;;8.82;2.58;;;;;;;;;;4975190;28;20030;-66
2021/12/08 14:49:08;;;;;;;6.63;1.40;;;;;;;;;;4975382;28;20453;-64
2021/12/08 14:51:38;;;;;;;10.40;1.75;;;;;;;;;;4989704;28;20034;-68
2021/12/08 14:54:09;;;;;;;6.53;1.83;;;;;;;;;;4994247;28;20035;-70
2021/12/08 14:56:35;;;;;;;;;;;;;;;;;;4993487;28;20477;-65
2021/12/08 14:59:01;;;;;;;7.72;2.28;;;;;;;;;;4984852;28;20011;-66
2021/12/08 15:01:26;;;;;;;7.43;2.10;;;;;;;;;;4992636;28;20066;-64
2021/12/08 15:03:52;;;;;;;8.68;2.13;;;;;;;;;;4992263;28;20034;-64
2021/12/08 15:06:21;;;;;;;9.30;2.00;;;;;;;;;;4977606;28;20036;-64
2021/12/08 15:08:47;;;;;;;5.97;1.90;;;;;;;;;;4993594;28;20155;-64
2021/12/08 15:11:28;;;;;;;7.40;2.15;;;;;;;;;;4992950;28;20050;-64
2021/12/08 15:13:54;;;;;;;6.97;2.10;;;;;;;;;;4994432;28;20041;-64
2021/12/08 15:16:22;;;;;;;7.13;2.10;;;;;;;;;;4975875;28;20049;-64
2021/12/08 15:18:51;;;;;;;8.73;2.70;;;;;;;;;;4994364;28;20031;-64
2021/12/08 15:21:34;;;;;;;9.77;2.10;;;;;;;;;;4993175;28;20030;-65
2021/12/08 15:24:06;;;;;;;5.30;2.05;;;;;;;;;;4994555;28;20037;-64
2021/12/08 15:26:32;;;;;;;7.47;2.30;;;;;;;;;;4993200;28;20034;-64
2021/12/08 15:29:00;;;;;;;8.55;2.33;;;;;;;;;;4976495;28;20030;-64
2021/12/08 15:31:37;;;;;;;7.13;2.00;;;;;;;;;;4992830;28;20096;-63
2021/12/08 15:34:26;;;;;;;10.40;2.47;;;;;;;;;;4976841;28;20166;-65
2021/12/08 15:37:13;;;;;;;8.80;2.13;;;;;;;;;;4993965;28;20030;-63
2021/12/08 15:39:41;;;;;;;6.53;2.28;;;;;;;;;;4978706;28;20116;-65
2021/12/08 15:42:09;;;;;;;5.43;2.10;;;;;;;;;;4992051;28;20097;-68
2021/12/08 15:44:36;;;;;;;11.45;2.55;;;;;;;;;;4993907;28;20034;-64
2021/12/08 15:47:03;;;;;;;11.57;2.58;;;;;;;;;;4993373;28;20113;-65
2021/12/08 15:49:34;;;;;;;6.90;2.65;;;;;;;;;;4992459;28;20034;-63
2021/12/08 15:52:05;;;;;;;;;;;;;;;;;;4994087;28;20147;-63
2021/12/08 15:54:35;;;;;;;4.78;2.08;;;;;;;;;;4975637;28;19972;-64
2021/12/08 15:57:07;;;;;;;12.68;2.95;;;;;;;;;;4993294;28;20026;-65
2021/12/08 15:59:38;;;;;;;9.63;2.53;;;;;;;;;;4992820;28;20031;-64
2021/12/08 16:02:13;;;;;;;10.90;2.45;;;;;;;;;;4975811;28;20038;-64
2021/12/08 16:04:51;;;;;;;9.23;2.75;;;;;;;;;;4992598;28;20073;-65